createdAt,value
2018-10-06T00:00:46.445Z,96.40
2018-10-06T00:05:49.532Z,96.50
2018-10-06T00:10:52.576Z,96.80
2018-10-06T00:15:55.631Z,96.70
2018-10-06T00:20:58.697Z,97.00
2018-10-06T00:26:01.766Z,97.00
2018-10-06T00:31:04.838Z,96.80
2018-10-06T00:36:07.901Z,96.90
2018-10-06T00:41:11.011Z,97.10
2018-10-06T00:46:14.076Z,97.20
2018-10-06T00:51:17.126Z,97.30
2018-10-06T00:56:20.208Z,97.00
2018-10-06T01:01:23.270Z,97.50
2018-10-06T01:06:26.443Z,97.40
2018-10-06T01:11:29.495Z,97.20
2018-10-06T01:16:32.543Z,97.80
2018-10-06T01:21:35.616Z,97.40
2018-10-06T01:26:38.662Z,97.30
2018-10-06T01:31:41.748Z,97.50
2018-10-06T01:36:44.799Z,97.50
2018-10-06T01:41:47.956Z,97.60
2018-10-06T01:46:51.276Z,98.00
2018-10-06T01:51:54.393Z,98.10
2018-10-06T01:56:57.464Z,98.20
2018-10-06T02:02:00.545Z,98.30
2018-10-06T02:07:03.680Z,98.20
2018-10-06T02:12:06.881Z,98.40
2018-10-06T02:17:10.036Z,98.60
2018-10-06T02:22:13.277Z,98.60
2018-10-06T02:27:16.385Z,98.60
2018-10-06T02:32:19.457Z,98.60
2018-10-06T02:42:31.936Z,98.70
2018-10-06T02:47:35.027Z,98.80
2018-10-06T02:52:38.092Z,99.00
2018-10-06T02:57:41.180Z,98.70
2018-10-06T03:02:44.227Z,98.80
2018-10-06T03:07:47.307Z,98.90
2018-10-06T03:12:50.397Z,99.20
2018-10-06T03:17:53.499Z,99.30
2018-10-06T03:22:56.573Z,99.50
2018-10-06T03:27:59.649Z,99.90
2018-10-06T03:33:02.759Z,99.90
2018-10-06T03:38:05.800Z,99.90
2018-10-06T03:43:08.869Z,99.90
2018-10-06T03:48:11.932Z,99.90
2018-10-06T03:53:15.007Z,99.90
2018-10-06T03:58:18.083Z,99.80
2018-10-06T04:03:21.132Z,99.90
2018-10-06T04:08:24.210Z,99.90
2018-10-06T04:13:27.514Z,99.80
2018-10-06T04:18:30.563Z,99.70
2018-10-06T04:23:33.645Z,99.80
2018-10-06T04:28:36.716Z,99.70
2018-10-06T04:33:40.051Z,99.70
2018-10-06T04:38:43.112Z,99.70
2018-10-06T04:43:46.231Z,99.70
2018-10-06T04:48:49.292Z,99.80
2018-10-06T04:53:52.360Z,99.70
2018-10-06T04:58:55.484Z,99.80
2018-10-06T05:03:58.563Z,99.90
2018-10-06T05:09:01.649Z,99.90
2018-10-06T05:14:04.704Z,99.80
2018-10-06T05:19:07.875Z,99.90
2018-10-06T05:24:11.041Z,99.90
2018-10-06T05:29:14.107Z,99.90
2018-10-06T05:34:17.184Z,99.90
2018-10-06T05:39:20.255Z,99.90
2018-10-06T05:44:23.324Z,99.90
2018-10-06T05:49:26.380Z,99.90
2018-10-06T05:54:29.452Z,99.90
2018-10-06T05:59:32.525Z,99.90
2018-10-06T06:04:35.597Z,99.90
2018-10-06T06:09:38.708Z,99.90
2018-10-06T06:14:41.782Z,99.90
2018-10-06T06:19:44.890Z,99.90
2018-10-06T06:24:48.008Z,99.90
2018-10-06T06:29:51.290Z,99.90
2018-10-06T06:34:54.509Z,99.90
2018-10-06T06:39:57.564Z,99.90
2018-10-06T06:45:00.699Z,99.90
2018-10-06T06:50:03.763Z,99.90
2018-10-06T06:55:06.897Z,99.90
2018-10-06T07:00:09.956Z,99.90
2018-10-06T07:05:13.032Z,99.90
2018-10-06T07:10:16.123Z,99.90
2018-10-06T07:15:19.284Z,99.90
2018-10-06T07:20:22.351Z,99.90
2018-10-06T07:25:25.445Z,99.90
2018-10-06T07:30:28.560Z,99.90
2018-10-06T07:35:31.647Z,99.90
2018-10-06T07:40:34.772Z,99.90
2018-10-06T07:45:37.876Z,99.90
2018-10-06T07:50:40.976Z,99.90
2018-10-06T07:55:44.051Z,99.90
2018-10-06T08:00:47.157Z,99.90
2018-10-06T08:05:50.252Z,96.50
2018-10-06T08:10:53.414Z,94.80
2018-10-06T08:15:56.824Z,95.30
2018-10-06T08:20:59.943Z,90.00
2018-10-06T08:26:03.037Z,80.10
2018-10-06T08:31:06.277Z,79.10
2018-10-06T08:36:09.386Z,84.70
2018-10-06T08:41:12.492Z,89.60
2018-10-06T08:46:15.551Z,91.00
2018-10-06T08:51:18.632Z,92.00
2018-10-06T08:56:21.837Z,92.70
2018-10-06T09:01:25.205Z,92.90
2018-10-06T09:06:28.383Z,93.20
2018-10-06T09:11:31.443Z,93.50
2018-10-06T09:16:34.508Z,93.50
2018-10-06T09:21:37.579Z,93.50
2018-10-06T09:26:40.633Z,93.70
2018-10-06T09:31:43.719Z,93.90
2018-10-06T09:36:46.805Z,93.90
2018-10-06T09:41:49.931Z,93.70
2018-10-06T09:46:52.968Z,93.50
2018-10-06T09:51:56.062Z,93.40
2018-10-06T09:56:59.161Z,93.10
2018-10-06T10:02:07.933Z,92.60
2018-10-06T10:07:11.057Z,92.10
2018-10-06T10:12:14.125Z,91.80
2018-10-06T10:17:17.365Z,91.60
2018-10-06T10:22:20.459Z,91.70
2018-10-06T10:27:23.330Z,91.60
2018-10-06T10:32:26.391Z,91.70
2018-10-06T10:37:29.513Z,92.00
2018-10-06T10:42:32.608Z,91.50
2018-10-06T10:47:35.667Z,91.60
2018-10-06T10:52:38.731Z,92.00
2018-10-06T10:57:41.839Z,91.80
2018-10-06T11:02:44.879Z,91.70
2018-10-06T11:07:47.951Z,91.40
2018-10-06T11:12:51.010Z,92.20
2018-10-06T11:17:54.061Z,91.80
2018-10-06T11:22:57.304Z,91.80
2018-10-06T11:28:00.363Z,91.50
2018-10-06T11:33:03.464Z,91.70
2018-10-06T11:38:06.624Z,91.70
2018-10-06T11:43:09.633Z,91.60
2018-10-06T11:48:12.839Z,91.50
2018-10-06T11:53:15.905Z,90.90
2018-10-06T11:58:19.051Z,91.10
2018-10-06T12:03:22.140Z,91.30
2018-10-06T12:08:25.208Z,91.20
2018-10-06T12:13:28.297Z,91.20
2018-10-06T12:18:31.380Z,91.10
2018-10-06T12:23:34.486Z,91.20
2018-10-06T12:28:37.568Z,91.00
2018-10-06T12:33:40.649Z,90.80
2018-10-06T12:38:43.713Z,91.10
2018-10-06T12:43:46.792Z,91.10
2018-10-06T12:48:49.872Z,91.10
2018-10-06T12:53:52.963Z,90.80
2018-10-06T12:58:56.020Z,90.80
2018-10-06T13:03:59.103Z,90.40
2018-10-06T13:09:02.172Z,90.80
2018-10-06T13:14:05.247Z,90.80
2018-10-06T13:19:08.364Z,90.90
2018-10-06T13:24:11.437Z,90.70
2018-10-06T13:29:14.547Z,90.20
2018-10-06T13:34:17.603Z,90.50
2018-10-06T13:39:20.655Z,90.40
2018-10-06T13:44:23.748Z,90.60
2018-10-06T13:49:26.832Z,90.20
2018-10-06T13:54:29.896Z,90.10
2018-10-06T13:59:32.963Z,90.40
2018-10-06T14:04:36.133Z,90.50
2018-10-06T14:09:39.210Z,90.40
2018-10-06T14:14:42.270Z,90.00
2018-10-06T14:19:45.328Z,89.40
2018-10-06T14:24:49.298Z,89.30
2018-10-06T14:29:52.362Z,90.00
2018-10-06T14:34:55.425Z,90.00
2018-10-06T14:39:58.504Z,90.00
2018-10-06T14:45:01.583Z,90.40
2018-10-06T14:50:04.979Z,90.30
2018-10-06T14:55:08.387Z,90.40
2018-10-06T15:00:11.483Z,90.00
2018-10-06T15:05:14.650Z,90.00
2018-10-06T15:10:17.785Z,90.00
2018-10-06T15:15:20.821Z,89.70
2018-10-06T15:20:23.903Z,90.00
2018-10-06T15:25:26.973Z,89.90
2018-10-06T15:30:30.049Z,90.10
2018-10-06T15:35:33.111Z,90.10
2018-10-06T15:40:36.184Z,90.40
2018-10-06T15:45:39.260Z,90.40
2018-10-06T15:50:42.344Z,90.50
2018-10-06T15:55:45.409Z,90.40
2018-10-06T16:00:48.489Z,90.60
2018-10-06T16:05:51.565Z,91.00
2018-10-06T16:10:54.680Z,91.90
2018-10-06T16:15:57.767Z,91.70
2018-10-06T16:21:00.827Z,92.00
2018-10-06T16:26:03.947Z,92.00
2018-10-06T16:31:07.273Z,92.20
2018-10-06T16:36:10.339Z,92.40
2018-10-06T16:41:13.435Z,92.60
2018-10-06T16:46:16.621Z,93.30
2018-10-06T16:51:19.705Z,92.90
2018-10-06T16:56:22.958Z,93.10
2018-10-06T17:01:26.024Z,93.40
2018-10-06T17:06:29.219Z,93.50
2018-10-06T17:11:32.180Z,93.70
2018-10-06T17:16:35.360Z,93.90
2018-10-06T17:21:38.447Z,94.20
2018-10-06T17:26:41.535Z,94.30
2018-10-06T17:31:44.612Z,94.40
2018-10-06T17:36:47.672Z,94.60
2018-10-06T17:41:50.757Z,94.70
2018-10-06T17:46:54.529Z,95.10
2018-10-06T17:51:57.699Z,95.80
2018-10-06T17:57:01.196Z,95.90
2018-10-06T18:02:04.290Z,95.90
2018-10-06T18:07:07.380Z,95.90
2018-10-06T18:12:10.463Z,96.10
2018-10-06T18:17:13.826Z,96.40
2018-10-06T18:22:17.460Z,96.20
2018-10-06T18:27:20.639Z,96.20
2018-10-06T18:32:24.004Z,96.30
2018-10-06T18:37:28.048Z,96.40
2018-10-06T18:42:31.864Z,96.60
2018-10-06T18:47:35.405Z,96.70
2018-10-06T18:52:38.837Z,96.60
2018-10-06T18:57:42.176Z,96.90
2018-10-06T19:02:45.727Z,97.10
2018-10-06T19:07:49.059Z,97.10
2018-10-06T19:12:52.780Z,97.50
2018-10-06T19:17:56.210Z,97.40
2018-10-06T19:22:59.377Z,97.40
2018-10-06T19:28:02.511Z,97.70
2018-10-06T19:33:05.928Z,97.50
2018-10-06T19:38:09.013Z,97.80
2018-10-06T19:43:12.091Z,98.30
2018-10-06T19:48:15.172Z,97.90
2018-10-06T19:53:18.264Z,98.10
2018-10-06T19:58:21.344Z,98.40
2018-10-06T20:03:24.439Z,98.50
2018-10-06T20:08:27.518Z,98.60
2018-10-06T20:13:30.590Z,98.30
2018-10-06T20:18:33.791Z,98.50
2018-10-06T20:23:36.881Z,98.70
2018-10-06T20:28:39.976Z,99.10
2018-10-06T20:33:43.072Z,98.90
2018-10-06T20:38:46.166Z,98.80
2018-10-06T20:43:49.416Z,99.00
2018-10-06T20:48:52.499Z,99.00
2018-10-06T20:53:55.580Z,99.10
2018-10-06T20:58:58.884Z,99.10
2018-10-06T21:04:01.963Z,99.20
2018-10-06T21:09:07.732Z,99.10
2018-10-06T21:14:10.980Z,99.20
2018-10-06T21:19:14.050Z,99.10
2018-10-06T21:24:17.123Z,99.40
2018-10-06T21:29:20.263Z,99.80
2018-10-06T21:34:23.308Z,99.40
2018-10-06T21:39:27.037Z,99.50
2018-10-06T21:44:30.171Z,99.60
2018-10-06T21:49:33.248Z,99.60
2018-10-06T21:54:36.348Z,99.70
2018-10-06T21:59:39.420Z,99.60
2018-10-06T22:04:42.533Z,99.70
2018-10-06T22:09:45.708Z,99.90
2018-10-06T22:14:48.800Z,99.80
2018-10-06T22:19:51.962Z,99.90
2018-10-06T22:24:55.085Z,99.90
2018-10-06T22:29:58.172Z,99.90
2018-10-06T22:35:01.264Z,99.90
2018-10-06T22:40:04.348Z,99.90
2018-10-06T22:45:07.570Z,99.90
2018-10-06T22:50:10.655Z,99.90
2018-10-06T22:55:13.744Z,99.90
2018-10-06T23:00:16.827Z,99.90
2018-10-06T23:05:19.929Z,99.90
2018-10-06T23:10:23.111Z,99.90
2018-10-06T23:15:26.168Z,99.90
2018-10-06T23:20:29.276Z,99.90
2018-10-06T23:25:32.452Z,99.90
2018-10-06T23:30:35.540Z,99.90
2018-10-06T23:35:38.648Z,99.90
2018-10-06T23:40:41.746Z,99.90
2018-10-06T23:45:44.836Z,99.90
2018-10-06T23:50:47.910Z,99.90
2018-10-06T23:55:51.011Z,99.90
